Corridon, Missouri
Current Conditions -  °F | °C
As of 5:15 PM on Friday 28 Nov 2014 (Local Time) from KFAM Reporting Station
Clear Clear  
Wind Chill: 38°   Ceiling: Unl
Heat Index: 45°   Visibility: 10mi
Dew Point: 34°   Wind: 14mph
Humidity: 66%   Direction: 190°S
Pressure: 29.99"   Gusts: 21mph
Location:  37.4443°N, 90.9972°W
Report Text: KFAM 282315Z AUTO 19012G18KT 10SM CLR 07/01 A2999 RMK AO1
Loading
Personal Weather Stations






























Interactive Weather Map New forecast layout! Learn more

10-Day Weather Forecast

Advertisements
Track Severe Weather on mobile